Airfield :







YOU CAN JOIN US ON...

 
LOGIN :

Register | Disclaimer

   EN    FR    IT 

 









Legend :    VFR   Marginal VFR   IFR   Intensive IFR   Very Intensive IFR
Visi :
Ceiling :
>= 8 km
>= 3000ft
5 to 8 km
1000 to 3000 ft
1500m to 5 km
500 to 1000 ft
800 to 1500m
200 to 500 ft
< 800m
< 200 ft
Symbols :   Thunderstorms  Fog  Heavy snow  Heavy precipitations  Wind > 20 kt






- Airport Elevation : 244 ft


KSFM - Sanford Regional

CURRENT METAR :
  • 250108Z AUTO 35010KT 7SM RA FEW008 BKN034 OVC060 18/17 A2962 RMK AO2 PNO $

EXPIRED METARs :
  • 250103Z AUTO 01010KT 6SM RA BR SCT010 BKN025 OVC048 18/17 A2962 RMK AO2 PNO $
  • 250043Z AUTO 36010KT 9SM -RA BKN010 BKN024 OVC036 18/18 A2961 RMK AO2 CIG 007V017 PNO $
  • 242356Z AUTO 02007G18KT 9SM +RA FEW022 BKN031 OVC050 20/18 A2958 RMK AO2 RAB24 SLPNO P0000 60001 T02000183 10256 20200 53022 $
  • 242256Z AUTO 29004KT 10SM FEW050 OVC070 22/16 A2955 RMK AO2 SLPNO T02220161 $

TAF N/A
KZBW FIR / North America



MET'MAP, your aeronautical weather chart ! - Copyright ORBIFLY December 2007 - Disclaimer

ORBIFLY MET'MAP TEAM :

Programming & Development : Alexandra Zaïnal
Original concept : Baudouin d'Aumeries
Technical & hardware support : Manuel Goepfert
Assistance : Marc-Olivier Méhu




SOURCES & CREDITS :

   NOAA